sensor_id;sensor_type;location;lat;lon;timestamp;temperature;humidity
5723;DHT22;2886;49.722;8.612;2023-04-24T00:00:57;11.90;99.90
5723;DHT22;2886;49.722;8.612;2023-04-24T00:03:23;12.00;99.90
5723;DHT22;2886;49.722;8.612;2023-04-24T00:05:49;12.00;99.90
5723;DHT22;2886;49.722;8.612;2023-04-24T00:08:15;12.00;99.90
5723;DHT22;2886;49.722;8.612;2023-04-24T00:10:41;12.10;99.90
5723;DHT22;2886;49.722;8.612;2023-04-24T00:13:07;12.10;99.90
5723;DHT22;2886;49.722;8.612;2023-04-24T00:15:32;12.10;99.90
5723;DHT22;2886;49.722;8.612;2023-04-24T00:17:58;12.10;99.90
5723;DHT22;2886;49.722;8.612;2023-04-24T00:20:24;12.10;99.90
5723;DHT22;2886;49.722;8.612;2023-04-24T00:22:49;12.10;99.90
5723;DHT22;2886;49.722;8.612;2023-04-24T00:25:15;12.10;99.90
5723;DHT22;2886;49.722;8.612;2023-04-24T00:27:40;12.20;99.90
5723;DHT22;2886;49.722;8.612;2023-04-24T00:30:07;12.10;99.90
5723;DHT22;2886;49.722;8.612;2023-04-24T00:32:32;12.10;99.90
5723;DHT22;2886;49.722;8.612;2023-04-24T00:34:58;12.10;99.90
5723;DHT22;2886;49.722;8.612;2023-04-24T00:37:23;12.10;99.90
5723;DHT22;2886;49.722;8.612;2023-04-24T00:39:49;12.20;99.90
5723;DHT22;2886;49.722;8.612;2023-04-24T00:42:15;12.20;99.90
5723;DHT22;2886;49.722;8.612;2023-04-24T00:44:40;12.20;99.90
5723;DHT22;2886;49.722;8.612;2023-04-24T00:47:07;12.20;99.90
5723;DHT22;2886;49.722;8.612;2023-04-24T00:49:32;12.20;99.90
5723;DHT22;2886;49.722;8.612;2023-04-24T00:51:58;12.20;99.90
5723;DHT22;2886;49.722;8.612;2023-04-24T00:54:24;12.20;99.90
5723;DHT22;2886;49.722;8.612;2023-04-24T00:56:50;12.20;99.90
5723;DHT22;2886;49.722;8.612;2023-04-24T00:59:17;12.20;99.90
5723;DHT22;2886;49.722;8.612;2023-04-24T01:01:44;12.20;99.90
5723;DHT22;2886;49.722;8.612;2023-04-24T01:04:14;12.10;99.90
5723;DHT22;2886;49.722;8.612;2023-04-24T01:06:43;12.00;99.90
5723;DHT22;2886;49.722;8.612;2023-04-24T01:09:10;12.00;99.90
5723;DHT22;2886;49.722;8.612;2023-04-24T01:11:37;11.90;99.90
5723;DHT22;2886;49.722;8.612;2023-04-24T01:14:03;11.90;99.90
5723;DHT22;2886;49.722;8.612;2023-04-24T01:16:31;11.80;99.90
5723;DHT22;2886;49.722;8.612;2023-04-24T01:18:57;11.80;99.90
5723;DHT22;2886;49.722;8.612;2023-04-24T01:21:23;11.80;99.90
5723;DHT22;2886;49.722;8.612;2023-04-24T01:23:53;11.70;99.90
5723;DHT22;2886;49.722;8.612;2023-04-24T01:26:19;11.70;99.90
5723;DHT22;2886;49.722;8.612;2023-04-24T01:29:06;11.70;99.90
5723;DHT22;2886;49.722;8.612;2023-04-24T01:31:32;11.80;99.90
5723;DHT22;2886;49.722;8.612;2023-04-24T01:33:58;11.90;99.90
5723;DHT22;2886;49.722;8.612;2023-04-24T01:36:24;11.90;99.90
5723;DHT22;2886;49.722;8.612;2023-04-24T01:38:52;12.00;99.90
5723;DHT22;2886;49.722;8.612;2023-04-24T01:41:18;12.00;99.90
5723;DHT22;2886;49.722;8.612;2023-04-24T01:43:45;12.10;99.90
5723;DHT22;2886;49.722;8.612;2023-04-24T01:46:11;12.10;99.90
5723;DHT22;2886;49.722;8.612;2023-04-24T01:48:37;12.10;99.90
5723;DHT22;2886;49.722;8.612;2023-04-24T01:51:02;12.10;99.90
5723;DHT22;2886;49.722;8.612;2023-04-24T01:53:28;12.10;99.90
5723;DHT22;2886;49.722;8.612;2023-04-24T01:55:54;12.10;99.90
5723;DHT22;2886;49.722;8.612;2023-04-24T01:58:19;12.10;99.90
5723;DHT22;2886;49.722;8.612;2023-04-24T02:00:45;12.10;99.90
5723;DHT22;2886;49.722;8.612;2023-04-24T02:03:14;12.10;99.90
5723;DHT22;2886;49.722;8.612;2023-04-24T02:05:44;12.10;99.90
5723;DHT22;2886;49.722;8.612;2023-04-24T02:08:10;12.10;99.90
5723;DHT22;2886;49.722;8.612;2023-04-24T02:10:36;12.00;99.90
5723;DHT22;2886;49.722;8.612;2023-04-24T02:13:01;12.10;99.90
5723;DHT22;2886;49.722;8.612;2023-04-24T02:15:27;12.10;99.90
5723;DHT22;2886;49.722;8.612;2023-04-24T02:17:53;12.10;99.90
5723;DHT22;2886;49.722;8.612;2023-04-24T02:20:19;12.10;99.90
5723;DHT22;2886;49.722;8.612;2023-04-24T02:22:44;12.10;99.90
5723;DHT22;2886;49.722;8.612;2023-04-24T02:25:10;12.10;99.90
5723;DHT22;2886;49.722;8.612;2023-04-24T02:27:36;12.10;99.90
5723;DHT22;2886;49.722;8.612;2023-04-24T02:30:01;12.10;99.90
5723;DHT22;2886;49.722;8.612;2023-04-24T02:32:28;12.10;99.90
5723;DHT22;2886;49.722;8.612;2023-04-24T02:34:54;12.10;99.90
5723;DHT22;2886;49.722;8.612;2023-04-24T02:37:19;12.10;99.90
5723;DHT22;2886;49.722;8.612;2023-04-24T02:39:45;12.10;99.90
5723;DHT22;2886;49.722;8.612;2023-04-24T02:42:10;11.90;99.90
5723;DHT22;2886;49.722;8.612;2023-04-24T02:44:36;11.70;99.90
5723;DHT22;2886;49.722;8.612;2023-04-24T02:47:03;11.60;99.90
5723;DHT22;2886;49.722;8.612;2023-04-24T02:49:29;11.50;99.90
5723;DHT22;2886;49.722;8.612;2023-04-24T02:51:54;11.40;99.90
5723;DHT22;2886;49.722;8.612;2023-04-24T02:54:20;11.30;99.90
5723;DHT22;2886;49.722;8.612;2023-04-24T02:56:45;11.20;99.90
5723;DHT22;2886;49.722;8.612;2023-04-24T02:59:11;11.20;99.90
5723;DHT22;2886;49.722;8.612;2023-04-24T03:01:36;11.20;99.90
5723;DHT22;2886;49.722;8.612;2023-04-24T03:04:05;11.10;99.90
5723;DHT22;2886;49.722;8.612;2023-04-24T03:06:30;11.10;99.90
5723;DHT22;2886;49.722;8.612;2023-04-24T03:08:58;11.10;99.90
5723;DHT22;2886;49.722;8.612;2023-04-24T03:11:23;11.10;99.90
5723;DHT22;2886;49.722;8.612;2023-04-24T03:13:49;11.10;99.90
5723;DHT22;2886;49.722;8.612;2023-04-24T03:16:15;11.10;99.90
5723;DHT22;2886;49.722;8.612;2023-04-24T03:18:41;11.10;99.90
5723;DHT22;2886;49.722;8.612;2023-04-24T03:21:07;11.10;99.90
5723;DHT22;2886;49.722;8.612;2023-04-24T03:23:33;11.10;99.90
5723;DHT22;2886;49.722;8.612;2023-04-24T03:25:58;11.10;99.90
5723;DHT22;2886;49.722;8.612;2023-04-24T03:28:24;11.10;99.90
5723;DHT22;2886;49.722;8.612;2023-04-24T03:30:50;11.10;99.90
5723;DHT22;2886;49.722;8.612;2023-04-24T03:33:16;11.00;99.90
5723;DHT22;2886;49.722;8.612;2023-04-24T03:35:41;11.00;99.90
5723;DHT22;2886;49.722;8.612;2023-04-24T03:38:07;10.90;99.90
5723;DHT22;2886;49.722;8.612;2023-04-24T03:40:35;11.00;99.90
5723;DHT22;2886;49.722;8.612;2023-04-24T03:43:01;11.00;99.90
5723;DHT22;2886;49.722;8.612;2023-04-24T03:45:27;10.90;99.90
5723;DHT22;2886;49.722;8.612;2023-04-24T03:47:53;10.90;99.90
5723;DHT22;2886;49.722;8.612;2023-04-24T03:50:19;10.90;99.90
5723;DHT22;2886;49.722;8.612;2023-04-24T03:52:44;10.90;99.90
5723;DHT22;2886;49.722;8.612;2023-04-24T03:55:18;10.90;99.90
5723;DHT22;2886;49.722;8.612;2023-04-24T03:57:53;10.90;99.90
5723;DHT22;2886;49.722;8.612;2023-04-24T04:00:18;10.90;99.90
5723;DHT22;2886;49.722;8.612;2023-04-24T04:02:44;10.90;99.90
5723;DHT22;2886;49.722;8.612;2023-04-24T04:05:10;10.80;99.90
5723;DHT22;2886;49.722;8.612;2023-04-24T04:07:36;10.80;99.90
5723;DHT22;2886;49.722;8.612;2023-04-24T04:10:01;10.70;99.90
5723;DHT22;2886;49.722;8.612;2023-04-24T04:12:27;10.60;99.90
5723;DHT22;2886;49.722;8.612;2023-04-24T04:14:52;10.60;99.90
5723;DHT22;2886;49.722;8.612;2023-04-24T04:17:18;10.50;99.90
5723;DHT22;2886;49.722;8.612;2023-04-24T04:19:44;10.40;99.90
5723;DHT22;2886;49.722;8.612;2023-04-24T04:22:10;10.40;99.90
5723;DHT22;2886;49.722;8.612;2023-04-24T04:24:35;10.30;99.90
5723;DHT22;2886;49.722;8.612;2023-04-24T04:27:04;10.20;99.90
5723;DHT22;2886;49.722;8.612;2023-04-24T04:29:30;10.10;99.90
5723;DHT22;2886;49.722;8.612;2023-04-24T04:31:57;10.00;99.90
5723;DHT22;2886;49.722;8.612;2023-04-24T04:34:22;10.00;99.90
5723;DHT22;2886;49.722;8.612;2023-04-24T04:36:49;9.90;99.90
5723;DHT22;2886;49.722;8.612;2023-04-24T04:39:15;9.80;99.90
5723;DHT22;2886;49.722;8.612;2023-04-24T04:41:42;9.80;99.90
5723;DHT22;2886;49.722;8.612;2023-04-24T04:44:07;9.70;99.90
5723;DHT22;2886;49.722;8.612;2023-04-24T04:46:34;9.70;99.90
5723;DHT22;2886;49.722;8.612;2023-04-24T04:49:01;9.70;99.90
5723;DHT22;2886;49.722;8.612;2023-04-24T04:51:26;9.70;99.90
5723;DHT22;2886;49.722;8.612;2023-04-24T04:53:52;9.70;99.90
5723;DHT22;2886;49.722;8.612;2023-04-24T04:56:18;9.70;99.90
5723;DHT22;2886;49.722;8.612;2023-04-24T04:58:44;9.70;99.90
5723;DHT22;2886;49.722;8.612;2023-04-24T05:01:09;9.80;99.90
5723;DHT22;2886;49.722;8.612;2023-04-24T05:03:35;9.90;99.90
5723;DHT22;2886;49.722;8.612;2023-04-24T05:06:01;9.90;99.90
5723;DHT22;2886;49.722;8.612;2023-04-24T05:08:27;9.90;99.90
5723;DHT22;2886;49.722;8.612;2023-04-24T05:10:55;9.90;99.90
5723;DHT22;2886;49.722;8.612;2023-04-24T05:13:21;10.00;99.90
5723;DHT22;2886;49.722;8.612;2023-04-24T05:15:46;10.10;99.90
5723;DHT22;2886;49.722;8.612;2023-04-24T05:18:12;10.10;99.90
5723;DHT22;2886;49.722;8.612;2023-04-24T05:20:38;10.30;99.90
5723;DHT22;2886;49.722;8.612;2023-04-24T05:23:03;10.40;99.90
5723;DHT22;2886;49.722;8.612;2023-04-24T05:25:29;10.40;99.90
5723;DHT22;2886;49.722;8.612;2023-04-24T05:27:57;10.50;99.90
5723;DHT22;2886;49.722;8.612;2023-04-24T05:30:23;10.50;99.90
5723;DHT22;2886;49.722;8.612;2023-04-24T05:32:48;10.60;99.90
5723;DHT22;2886;49.722;8.612;2023-04-24T05:35:14;10.60;99.90
5723;DHT22;2886;49.722;8.612;2023-04-24T05:37:39;10.70;99.90
5723;DHT22;2886;49.722;8.612;2023-04-24T05:40:05;10.70;99.90
5723;DHT22;2886;49.722;8.612;2023-04-24T05:42:31;10.70;99.90
5723;DHT22;2886;49.722;8.612;2023-04-24T05:44:57;10.80;99.90
5723;DHT22;2886;49.722;8.612;2023-04-24T05:47:25;10.80;99.90
5723;DHT22;2886;49.722;8.612;2023-04-24T05:49:51;10.70;99.90
5723;DHT22;2886;49.722;8.612;2023-04-24T05:52:17;10.80;99.90
5723;DHT22;2886;49.722;8.612;2023-04-24T05:54:43;10.80;99.90
5723;DHT22;2886;49.722;8.612;2023-04-24T05:57:08;10.90;99.90
5723;DHT22;2886;49.722;8.612;2023-04-24T05:59:37;11.00;99.90
5723;DHT22;2886;49.722;8.612;2023-04-24T06:02:03;11.30;99.90
5723;DHT22;2886;49.722;8.612;2023-04-24T06:04:29;12.00;99.90
5723;DHT22;2886;49.722;8.612;2023-04-24T06:06:55;11.90;99.90
5723;DHT22;2886;49.722;8.612;2023-04-24T06:09:22;12.10;99.90
5723;DHT22;2886;49.722;8.612;2023-04-24T06:11:49;12.20;99.90
5723;DHT22;2886;49.722;8.612;2023-04-24T06:14:15;12.40;99.90
5723;DHT22;2886;49.722;8.612;2023-04-24T06:16:42;12.60;99.90
5723;DHT22;2886;49.722;8.612;2023-04-24T06:19:07;12.80;99.90
5723;DHT22;2886;49.722;8.612;2023-04-24T06:21:33;12.60;99.90
5723;DHT22;2886;49.722;8.612;2023-04-24T06:23:59;12.30;99.90
5723;DHT22;2886;49.722;8.612;2023-04-24T06:26:25;12.00;99.90
5723;DHT22;2886;49.722;8.612;2023-04-24T06:28:53;11.80;99.90
5723;DHT22;2886;49.722;8.612;2023-04-24T06:31:22;11.80;99.90
5723;DHT22;2886;49.722;8.612;2023-04-24T06:33:48;11.80;99.90
5723;DHT22;2886;49.722;8.612;2023-04-24T06:36:14;11.80;99.90
5723;DHT22;2886;49.722;8.612;2023-04-24T06:38:41;11.70;99.90
5723;DHT22;2886;49.722;8.612;2023-04-24T06:41:07;11.60;99.90
5723;DHT22;2886;49.722;8.612;2023-04-24T06:43:33;11.60;99.90
5723;DHT22;2886;49.722;8.612;2023-04-24T06:45:59;11.60;99.90
5723;DHT22;2886;49.722;8.612;2023-04-24T06:48:25;11.60;99.90
5723;DHT22;2886;49.722;8.612;2023-04-24T06:50:52;11.60;99.90
5723;DHT22;2886;49.722;8.612;2023-04-24T06:53:17;11.60;99.90
5723;DHT22;2886;49.722;8.612;2023-04-24T06:55:43;11.50;99.90
5723;DHT22;2886;49.722;8.612;2023-04-24T06:58:11;11.30;99.90
5723;DHT22;2886;49.722;8.612;2023-04-24T07:00:37;11.30;99.90
5723;DHT22;2886;49.722;8.612;2023-04-24T07:03:03;11.30;99.90
5723;DHT22;2886;49.722;8.612;2023-04-24T07:05:31;11.30;99.90
5723;DHT22;2886;49.722;8.612;2023-04-24T07:07:56;11.40;99.90
5723;DHT22;2886;49.722;8.612;2023-04-24T07:10:24;11.40;99.90
5723;DHT22;2886;49.722;8.612;2023-04-24T07:12:49;11.40;99.90
5723;DHT22;2886;49.722;8.612;2023-04-24T07:15:15;11.50;99.90
5723;DHT22;2886;49.722;8.612;2023-04-24T07:17:41;11.60;99.90
5723;DHT22;2886;49.722;8.612;2023-04-24T07:20:10;11.70;99.90
5723;DHT22;2886;49.722;8.612;2023-04-24T07:22:37;11.70;99.90
5723;DHT22;2886;49.722;8.612;2023-04-24T07:25:03;11.80;99.90
5723;DHT22;2886;49.722;8.612;2023-04-24T07:27:28;11.80;99.90
5723;DHT22;2886;49.722;8.612;2023-04-24T07:29:54;11.80;99.90
5723;DHT22;2886;49.722;8.612;2023-04-24T07:32:19;11.90;99.90
5723;DHT22;2886;49.722;8.612;2023-04-24T07:34:45;11.90;99.90
5723;DHT22;2886;49.722;8.612;2023-04-24T07:37:11;11.80;99.90
5723;DHT22;2886;49.722;8.612;2023-04-24T07:39:36;11.80;99.90
5723;DHT22;2886;49.722;8.612;2023-04-24T07:42:02;11.90;99.90
5723;DHT22;2886;49.722;8.612;2023-04-24T07:44:28;12.00;99.90
5723;DHT22;2886;49.722;8.612;2023-04-24T07:46:55;12.20;99.90
5723;DHT22;2886;49.722;8.612;2023-04-24T07:49:21;12.40;99.90
5723;DHT22;2886;49.722;8.612;2023-04-24T07:51:46;12.50;99.90
5723;DHT22;2886;49.722;8.612;2023-04-24T07:54:12;12.40;99.90
5723;DHT22;2886;49.722;8.612;2023-04-24T07:56:38;12.60;99.90
5723;DHT22;2886;49.722;8.612;2023-04-24T07:59:04;12.80;99.90
5723;DHT22;2886;49.722;8.612;2023-04-24T08:01:30;13.00;99.90
5723;DHT22;2886;49.722;8.612;2023-04-24T08:03:56;13.00;99.90
5723;DHT22;2886;49.722;8.612;2023-04-24T08:06:21;12.90;99.90
5723;DHT22;2886;49.722;8.612;2023-04-24T08:08:47;12.80;98.00
5723;DHT22;2886;49.722;8.612;2023-04-24T08:11:13;12.70;95.80
5723;DHT22;2886;49.722;8.612;2023-04-24T08:13:38;12.80;94.00
5723;DHT22;2886;49.722;8.612;2023-04-24T08:16:04;12.90;91.80
5723;DHT22;2886;49.722;8.612;2023-04-24T08:18:30;13.20;92.90
5723;DHT22;2886;49.722;8.612;2023-04-24T08:20:55;13.20;91.90
5723;DHT22;2886;49.722;8.612;2023-04-24T08:23:26;13.20;90.90
5723;DHT22;2886;49.722;8.612;2023-04-24T08:25:52;13.10;88.40
5723;DHT22;2886;49.722;8.612;2023-04-24T08:28:17;13.00;91.10
5723;DHT22;2886;49.722;8.612;2023-04-24T08:30:46;13.10;91.60
5723;DHT22;2886;49.722;8.612;2023-04-24T08:33:12;13.10;91.20
5723;DHT22;2886;49.722;8.612;2023-04-24T08:35:40;13.00;92.60
5723;DHT22;2886;49.722;8.612;2023-04-24T08:38:06;13.00;91.10
5723;DHT22;2886;49.722;8.612;2023-04-24T08:40:34;13.00;90.50
5723;DHT22;2886;49.722;8.612;2023-04-24T08:42:59;12.90;90.30
5723;DHT22;2886;49.722;8.612;2023-04-24T08:45:26;13.00;89.90
5723;DHT22;2886;49.722;8.612;2023-04-24T08:47:52;13.40;86.00
5723;DHT22;2886;49.722;8.612;2023-04-24T08:50:20;13.90;77.70
5723;DHT22;2886;49.722;8.612;2023-04-24T08:52:48;14.20;78.40
5723;DHT22;2886;49.722;8.612;2023-04-24T08:55:15;14.60;76.30
5723;DHT22;2886;49.722;8.612;2023-04-24T08:57:42;14.80;73.90
5723;DHT22;2886;49.722;8.612;2023-04-24T09:00:10;14.90;72.10
5723;DHT22;2886;49.722;8.612;2023-04-24T09:02:37;14.60;71.50
5723;DHT22;2886;49.722;8.612;2023-04-24T09:05:06;14.20;71.80
5723;DHT22;2886;49.722;8.612;2023-04-24T09:07:34;13.70;72.00
5723;DHT22;2886;49.722;8.612;2023-04-24T09:10:02;13.30;77.60
5723;DHT22;2886;49.722;8.612;2023-04-24T09:12:27;13.20;81.30
5723;DHT22;2886;49.722;8.612;2023-04-24T09:14:53;13.20;84.50
5723;DHT22;2886;49.722;8.612;2023-04-24T09:17:20;13.00;85.60
5723;DHT22;2886;49.722;8.612;2023-04-24T09:19:48;13.00;87.00
5723;DHT22;2886;49.722;8.612;2023-04-24T09:22:15;13.00;87.50
5723;DHT22;2886;49.722;8.612;2023-04-24T09:24:40;13.10;86.70
5723;DHT22;2886;49.722;8.612;2023-04-24T09:27:07;13.00;84.00
5723;DHT22;2886;49.722;8.612;2023-04-24T09:29:32;13.00;86.70
5723;DHT22;2886;49.722;8.612;2023-04-24T09:31:58;13.00;86.70
5723;DHT22;2886;49.722;8.612;2023-04-24T09:34:26;13.00;86.40
5723;DHT22;2886;49.722;8.612;2023-04-24T09:36:53;13.00;86.70
5723;DHT22;2886;49.722;8.612;2023-04-24T09:39:19;13.10;88.30
5723;DHT22;2886;49.722;8.612;2023-04-24T09:41:55;13.20;89.40
5723;DHT22;2886;49.722;8.612;2023-04-24T09:44:24;13.20;90.20
5723;DHT22;2886;49.722;8.612;2023-04-24T09:46:58;13.20;89.10
5723;DHT22;2886;49.722;8.612;2023-04-24T09:49:27;13.30;88.60
5723;DHT22;2886;49.722;8.612;2023-04-24T09:52:02;13.20;87.50
5723;DHT22;2886;49.722;8.612;2023-04-24T09:54:28;13.20;90.10
5723;DHT22;2886;49.722;8.612;2023-04-24T09:56:55;13.10;90.70
5723;DHT22;2886;49.722;8.612;2023-04-24T09:59:22;13.20;88.30
5723;DHT22;2886;49.722;8.612;2023-04-24T10:01:48;13.30;85.60
5723;DHT22;2886;49.722;8.612;2023-04-24T10:04:26;13.20;85.30
5723;DHT22;2886;49.722;8.612;2023-04-24T10:06:54;13.20;87.60
5723;DHT22;2886;49.722;8.612;2023-04-24T10:09:24;13.10;85.70
5723;DHT22;2886;49.722;8.612;2023-04-24T10:11:51;13.00;87.80
5723;DHT22;2886;49.722;8.612;2023-04-24T10:14:20;13.20;88.10
5723;DHT22;2886;49.722;8.612;2023-04-24T10:16:51;13.20;88.60
5723;DHT22;2886;49.722;8.612;2023-04-24T10:19:17;13.40;88.40
5723;DHT22;2886;49.722;8.612;2023-04-24T10:21:46;13.60;89.00
5723;DHT22;2886;49.722;8.612;2023-04-24T10:24:17;13.70;87.60
5723;DHT22;2886;49.722;8.612;2023-04-24T10:26:44;13.70;86.30
5723;DHT22;2886;49.722;8.612;2023-04-24T10:29:11;13.80;87.10
5723;DHT22;2886;49.722;8.612;2023-04-24T10:31:38;13.70;88.80
5723;DHT22;2886;49.722;8.612;2023-04-24T10:34:05;13.70;89.00
5723;DHT22;2886;49.722;8.612;2023-04-24T10:36:33;13.50;88.90
5723;DHT22;2886;49.722;8.612;2023-04-24T10:39:02;13.40;87.00
5723;DHT22;2886;49.722;8.612;2023-04-24T10:41:30;13.30;88.40
5723;DHT22;2886;49.722;8.612;2023-04-24T10:44:10;13.10;90.50
5723;DHT22;2886;49.722;8.612;2023-04-24T10:46:36;13.00;91.00
5723;DHT22;2886;49.722;8.612;2023-04-24T10:49:06;12.90;91.80
5723;DHT22;2886;49.722;8.612;2023-04-24T10:51:51;12.90;91.90
5723;DHT22;2886;49.722;8.612;2023-04-24T10:59:49;13.10;90.90
5723;DHT22;2886;49.722;8.612;2023-04-24T11:02:16;13.30;90.80
5723;DHT22;2886;49.722;8.612;2023-04-24T11:04:43;13.30;90.60
5723;DHT22;2886;49.722;8.612;2023-04-24T11:07:10;13.50;90.70
5723;DHT22;2886;49.722;8.612;2023-04-24T11:09:36;13.70;87.40
5723;DHT22;2886;49.722;8.612;2023-04-24T11:12:07;13.80;87.20
5723;DHT22;2886;49.722;8.612;2023-04-24T11:15:01;13.90;83.80
5723;DHT22;2886;49.722;8.612;2023-04-24T11:17:37;14.00;84.20
5723;DHT22;2886;49.722;8.612;2023-04-24T11:20:07;14.00;84.80
5723;DHT22;2886;49.722;8.612;2023-04-24T11:22:34;14.00;85.00
5723;DHT22;2886;49.722;8.612;2023-04-24T11:25:02;13.90;83.50
5723;DHT22;2886;49.722;8.612;2023-04-24T11:27:30;13.90;82.90
5723;DHT22;2886;49.722;8.612;2023-04-24T11:37:42;14.30;77.30
5723;DHT22;2886;49.722;8.612;2023-04-24T11:40:11;14.60;76.50
5723;DHT22;2886;49.722;8.612;2023-04-24T11:42:42;14.80;77.00
5723;DHT22;2886;49.722;8.612;2023-04-24T11:45:20;14.90;76.50
5723;DHT22;2886;49.722;8.612;2023-04-24T11:47:46;14.80;73.70
5723;DHT22;2886;49.722;8.612;2023-04-24T11:50:16;14.50;76.50
5723;DHT22;2886;49.722;8.612;2023-04-24T11:52:44;14.30;76.70
5723;DHT22;2886;49.722;8.612;2023-04-24T11:57:49;14.10;78.60
5723;DHT22;2886;49.722;8.612;2023-04-24T12:00:38;14.00;78.50
5723;DHT22;2886;49.722;8.612;2023-04-24T12:03:08;14.00;78.90
5723;DHT22;2886;49.722;8.612;2023-04-24T12:05:34;14.30;79.70
5723;DHT22;2886;49.722;8.612;2023-04-24T12:08:00;14.70;75.20
5723;DHT22;2886;49.722;8.612;2023-04-24T12:10:28;14.90;74.60
5723;DHT22;2886;49.722;8.612;2023-04-24T12:12:56;14.70;73.80
5723;DHT22;2886;49.722;8.612;2023-04-24T12:15:22;14.40;73.90
5723;DHT22;2886;49.722;8.612;2023-04-24T12:17:51;14.30;73.80
5723;DHT22;2886;49.722;8.612;2023-04-24T12:20:22;14.10;73.40
5723;DHT22;2886;49.722;8.612;2023-04-24T12:22:53;13.80;76.90
5723;DHT22;2886;49.722;8.612;2023-04-24T12:25:21;13.50;90.90
5723;DHT22;2886;49.722;8.612;2023-04-24T12:28:08;13.20;92.80
5723;DHT22;2886;49.722;8.612;2023-04-24T12:30:48;13.00;96.90
5723;DHT22;2886;49.722;8.612;2023-04-24T12:33:18;12.70;98.60
5723;DHT22;2886;49.722;8.612;2023-04-24T12:35:45;12.40;99.90
5723;DHT22;2886;49.722;8.612;2023-04-24T12:38:12;12.20;99.20
5723;DHT22;2886;49.722;8.612;2023-04-24T12:40:39;12.20;97.70
5723;DHT22;2886;49.722;8.612;2023-04-24T12:43:18;12.50;97.70
5723;DHT22;2886;49.722;8.612;2023-04-24T12:45:44;13.00;93.30
5723;DHT22;2886;49.722;8.612;2023-04-24T12:48:12;13.20;92.30
5723;DHT22;2886;49.722;8.612;2023-04-24T12:50:41;13.70;90.40
5723;DHT22;2886;49.722;8.612;2023-04-24T12:53:08;14.10;91.60
5723;DHT22;2886;49.722;8.612;2023-04-24T12:55:34;14.50;82.40
5723;DHT22;2886;49.722;8.612;2023-04-24T12:58:00;14.80;83.70
5723;DHT22;2886;49.722;8.612;2023-04-24T13:00:27;15.20;81.00
5723;DHT22;2886;49.722;8.612;2023-04-24T13:02:52;15.50;74.60
5723;DHT22;2886;49.722;8.612;2023-04-24T13:05:18;15.70;70.90
5723;DHT22;2886;49.722;8.612;2023-04-24T13:07:44;15.70;69.30
5723;DHT22;2886;49.722;8.612;2023-04-24T13:10:09;15.40;69.10
5723;DHT22;2886;49.722;8.612;2023-04-24T13:12:35;15.30;67.40
5723;DHT22;2886;49.722;8.612;2023-04-24T13:15:01;15.00;69.10
5723;DHT22;2886;49.722;8.612;2023-04-24T13:17:27;14.70;72.60
5723;DHT22;2886;49.722;8.612;2023-04-24T13:19:54;14.60;72.70
5723;DHT22;2886;49.722;8.612;2023-04-24T13:22:20;14.60;71.10
5723;DHT22;2886;49.722;8.612;2023-04-24T13:24:46;14.50;72.40
5723;DHT22;2886;49.722;8.612;2023-04-24T13:27:14;14.60;69.80
5723;DHT22;2886;49.722;8.612;2023-04-24T13:29:41;15.00;69.50
5723;DHT22;2886;49.722;8.612;2023-04-24T13:32:08;15.00;67.80
5723;DHT22;2886;49.722;8.612;2023-04-24T13:34:33;14.90;67.60
5723;DHT22;2886;49.722;8.612;2023-04-24T13:37:03;15.00;65.80
5723;DHT22;2886;49.722;8.612;2023-04-24T13:39:31;15.10;66.20
5723;DHT22;2886;49.722;8.612;2023-04-24T13:41:57;15.10;67.40
5723;DHT22;2886;49.722;8.612;2023-04-24T13:44:23;15.10;68.20
5723;DHT22;2886;49.722;8.612;2023-04-24T13:46:52;15.00;68.50
5723;DHT22;2886;49.722;8.612;2023-04-24T13:49:20;15.00;68.10
5723;DHT22;2886;49.722;8.612;2023-04-24T13:51:47;15.10;70.60
5723;DHT22;2886;49.722;8.612;2023-04-24T13:54:14;15.50;68.90
5723;DHT22;2886;49.722;8.612;2023-04-24T13:56:40;15.80;67.40
5723;DHT22;2886;49.722;8.612;2023-04-24T13:59:06;15.90;64.20
5723;DHT22;2886;49.722;8.612;2023-04-24T14:01:32;15.70;61.00
5723;DHT22;2886;49.722;8.612;2023-04-24T14:03:57;15.60;62.30
5723;DHT22;2886;49.722;8.612;2023-04-24T14:06:23;15.50;62.60
5723;DHT22;2886;49.722;8.612;2023-04-24T14:08:50;15.50;64.60
5723;DHT22;2886;49.722;8.612;2023-04-24T14:11:17;15.50;64.80
5723;DHT22;2886;49.722;8.612;2023-04-24T14:13:43;15.60;65.20
5723;DHT22;2886;49.722;8.612;2023-04-24T14:16:09;15.60;65.60
5723;DHT22;2886;49.722;8.612;2023-04-24T14:18:36;15.60;63.70
5723;DHT22;2886;49.722;8.612;2023-04-24T14:21:02;15.50;62.70
5723;DHT22;2886;49.722;8.612;2023-04-24T14:23:28;15.40;63.90
5723;DHT22;2886;49.722;8.612;2023-04-24T14:25:54;15.30;63.50
5723;DHT22;2886;49.722;8.612;2023-04-24T14:28:20;15.40;62.80
5723;DHT22;2886;49.722;8.612;2023-04-24T14:30:47;15.20;64.70
5723;DHT22;2886;49.722;8.612;2023-04-24T14:33:13;15.30;64.00
5723;DHT22;2886;49.722;8.612;2023-04-24T14:35:42;15.30;64.10
5723;DHT22;2886;49.722;8.612;2023-04-24T14:38:08;15.20;64.60
5723;DHT22;2886;49.722;8.612;2023-04-24T14:40:34;15.20;64.50
5723;DHT22;2886;49.722;8.612;2023-04-24T14:43:00;15.00;61.00
5723;DHT22;2886;49.722;8.612;2023-04-24T14:45:26;15.00;60.10
5723;DHT22;2886;49.722;8.612;2023-04-24T14:47:53;15.00;60.70
5723;DHT22;2886;49.722;8.612;2023-04-24T14:50:19;15.00;61.00
5723;DHT22;2886;49.722;8.612;2023-04-24T14:52:47;15.00;61.70
5723;DHT22;2886;49.722;8.612;2023-04-24T14:55:13;15.00;61.70
5723;DHT22;2886;49.722;8.612;2023-04-24T14:57:39;14.90;62.40
5723;DHT22;2886;49.722;8.612;2023-04-24T15:00:17;15.00;62.80
5723;DHT22;2886;49.722;8.612;2023-04-24T15:02:43;15.00;63.10
5723;DHT22;2886;49.722;8.612;2023-04-24T15:05:11;14.90;63.00
5723;DHT22;2886;49.722;8.612;2023-04-24T15:07:38;14.90;62.70
5723;DHT22;2886;49.722;8.612;2023-04-24T15:10:07;14.70;61.40
5723;DHT22;2886;49.722;8.612;2023-04-24T15:12:33;14.70;61.60
5723;DHT22;2886;49.722;8.612;2023-04-24T15:14:59;14.60;62.10
5723;DHT22;2886;49.722;8.612;2023-04-24T15:17:25;14.60;62.30
5723;DHT22;2886;49.722;8.612;2023-04-24T15:19:51;14.70;62.30
5723;DHT22;2886;49.722;8.612;2023-04-24T15:22:19;14.50;63.10
5723;DHT22;2886;49.722;8.612;2023-04-24T15:24:48;14.50;64.10
5723;DHT22;2886;49.722;8.612;2023-04-24T15:27:13;14.40;64.10
5723;DHT22;2886;49.722;8.612;2023-04-24T15:29:39;14.40;63.70
5723;DHT22;2886;49.722;8.612;2023-04-24T15:32:05;14.50;63.70
5723;DHT22;2886;49.722;8.612;2023-04-24T15:34:30;14.70;63.70
5723;DHT22;2886;49.722;8.612;2023-04-24T15:36:57;15.00;62.20
5723;DHT22;2886;49.722;8.612;2023-04-24T15:39:23;15.10;61.80
5723;DHT22;2886;49.722;8.612;2023-04-24T15:41:52;15.00;63.30
5723;DHT22;2886;49.722;8.612;2023-04-24T15:44:20;15.10;62.40
5723;DHT22;2886;49.722;8.612;2023-04-24T15:46:46;15.00;62.30
5723;DHT22;2886;49.722;8.612;2023-04-24T15:49:18;14.70;62.60
5723;DHT22;2886;49.722;8.612;2023-04-24T15:51:44;14.70;62.00
5723;DHT22;2886;49.722;8.612;2023-04-24T15:54:09;14.60;63.10
5723;DHT22;2886;49.722;8.612;2023-04-24T15:56:35;14.70;64.30
5723;DHT22;2886;49.722;8.612;2023-04-24T15:59:01;14.80;64.50
5723;DHT22;2886;49.722;8.612;2023-04-24T16:01:29;15.10;80.50
5723;DHT22;2886;49.722;8.612;2023-04-24T16:03:55;15.00;75.50
5723;DHT22;2886;49.722;8.612;2023-04-24T16:06:21;14.90;82.40
5723;DHT22;2886;49.722;8.612;2023-04-24T16:08:47;14.70;83.70
5723;DHT22;2886;49.722;8.612;2023-04-24T16:11:13;14.60;85.90
5723;DHT22;2886;49.722;8.612;2023-04-24T16:13:39;14.50;91.30
5723;DHT22;2886;49.722;8.612;2023-04-24T16:16:04;14.40;91.20